Accueil
METAR-TAF:

METAR-TAF

Aéroports :

Berlin, Allemagne

Aéroport de Berlin-Tegel

latitude: 52-34N, longitude: 013-19E, altitude: 37 m

Observation

Le bulletin a été fait il y a 36 minutes, à 02:50 UTC
Vent 1 kt de ouest
Température 1°C
Humidité 100%
Pression 1025 hPa
Visibilité 10 km ou plus
Brouillard mince

METAR: EDDT 260250Z 27001KT 9999 MIFG NSC 01/01 Q1025 NOSIG

Heure: 05:26 (03:26 UTC)

Prévision

Le bulletin a été fait il y a 4 heures et 26 minutes, à 23:00 UTC
Prévision valable du 26 à 00 UTC au 26 à 24 UTC
Vent 3 kt de direction variable
Visibilité 10 km ou plus
pas de nuages en-dessous de 1500 mètres et pas de cumulonimbus.
Probabilité 30% :
Temporairement
du 26 à 03 UTC au 26 à 05 UTC
Visibilité: 2500 m
brume

TAF: EDDT 252300Z 2600/2624 VRB03KT CAVOK PROB30 TEMPO 2603/2605 2500 BR

Observations et prévisions météorologiques de plus de 4000 aéroports (messages METAR et TAF).

Les stations disponibles sont représentées par des disques jaunes et rouges sur la carte.

Passer la souris dessus pour voir le nom de la station.

Cliquer dessus pour voir les observations et prévisions météorologiques.

Pour changer de carte: cliquez sur les boutons verts avec une croix noire pour zoomer, sur le bouton vert avec un tiret pour effectuer un zoom arrière, ou sur les flèches vertes pour les cartes adjacentes.


METAR-TAF: